sensor_id;sensor_type;location;lat;lon;timestamp;temperature;humidity
7688;DHT22;30781;48.154;11.554;2022-10-31T00:01:27;13.50;99.90
7688;DHT22;30781;48.154;11.554;2022-10-31T00:04:02;13.40;99.90
7688;DHT22;30781;48.154;11.554;2022-10-31T00:06:30;13.40;99.90
7688;DHT22;30781;48.154;11.554;2022-10-31T00:08:59;13.40;99.90
7688;DHT22;30781;48.154;11.554;2022-10-31T00:11:35;13.40;99.90
7688;DHT22;30781;48.154;11.554;2022-10-31T00:14:05;13.40;99.90
7688;DHT22;30781;48.154;11.554;2022-10-31T00:16:35;13.40;99.90
7688;DHT22;30781;48.154;11.554;2022-10-31T00:19:07;13.40;99.90
7688;DHT22;30781;48.154;11.554;2022-10-31T00:21:40;13.40;99.90
7688;DHT22;30781;48.154;11.554;2022-10-31T00:24:12;13.30;99.90
7688;DHT22;30781;48.154;11.554;2022-10-31T00:26:40;13.30;99.90
7688;DHT22;30781;48.154;11.554;2022-10-31T00:29:07;13.30;99.90
7688;DHT22;30781;48.154;11.554;2022-10-31T00:31:38;13.30;99.90
7688;DHT22;30781;48.154;11.554;2022-10-31T00:34:15;13.30;99.90
7688;DHT22;30781;48.154;11.554;2022-10-31T00:36:45;13.30;99.90
7688;DHT22;30781;48.154;11.554;2022-10-31T00:39:13;13.30;99.90
7688;DHT22;30781;48.154;11.554;2022-10-31T00:41:43;13.30;99.90
7688;DHT22;30781;48.154;11.554;2022-10-31T00:44:10;13.30;99.90
7688;DHT22;30781;48.154;11.554;2022-10-31T00:46:39;13.30;99.90
7688;DHT22;30781;48.154;11.554;2022-10-31T00:49:15;13.40;99.90
7688;DHT22;30781;48.154;11.554;2022-10-31T00:51:42;13.30;99.90
7688;DHT22;30781;48.154;11.554;2022-10-31T00:54:12;13.30;99.90
7688;DHT22;30781;48.154;11.554;2022-10-31T00:56:43;13.30;99.90
7688;DHT22;30781;48.154;11.554;2022-10-31T00:59:12;13.30;99.90
7688;DHT22;30781;48.154;11.554;2022-10-31T01:01:39;13.30;99.90
7688;DHT22;30781;48.154;11.554;2022-10-31T01:04:09;13.30;99.90
7688;DHT22;30781;48.154;11.554;2022-10-31T01:06:44;13.30;99.90
7688;DHT22;30781;48.154;11.554;2022-10-31T01:09:14;13.30;99.90
7688;DHT22;30781;48.154;11.554;2022-10-31T01:11:44;13.20;99.90
7688;DHT22;30781;48.154;11.554;2022-10-31T01:14:13;13.20;99.90
7688;DHT22;30781;48.154;11.554;2022-10-31T01:16:42;13.20;99.90
7688;DHT22;30781;48.154;11.554;2022-10-31T01:19:09;13.20;99.90
7688;DHT22;30781;48.154;11.554;2022-10-31T01:21:42;13.10;99.90
7688;DHT22;30781;48.154;11.554;2022-10-31T01:24:11;13.10;99.90
7688;DHT22;30781;48.154;11.554;2022-10-31T01:26:38;13.10;99.90
7688;DHT22;30781;48.154;11.554;2022-10-31T01:29:15;13.10;99.90
7688;DHT22;30781;48.154;11.554;2022-10-31T01:31:45;13.10;99.90
7688;DHT22;30781;48.154;11.554;2022-10-31T01:34:16;13.10;99.90
7688;DHT22;30781;48.154;11.554;2022-10-31T01:36:47;13.10;99.90
7688;DHT22;30781;48.154;11.554;2022-10-31T01:39:20;13.00;99.90
7688;DHT22;30781;48.154;11.554;2022-10-31T01:41:57;13.00;99.90
7688;DHT22;30781;48.154;11.554;2022-10-31T01:44:53;13.00;99.90
7688;DHT22;30781;48.154;11.554;2022-10-31T01:47:44;13.00;99.90
7688;DHT22;30781;48.154;11.554;2022-10-31T01:50:23;13.00;99.90
7688;DHT22;30781;48.154;11.554;2022-10-31T01:53:00;12.90;99.90
7688;DHT22;30781;48.154;11.554;2022-10-31T01:55:40;12.90;99.90
7688;DHT22;30781;48.154;11.554;2022-10-31T01:58:14;12.90;99.90
7688;DHT22;30781;48.154;11.554;2022-10-31T02:00:45;12.80;99.90
7688;DHT22;30781;48.154;11.554;2022-10-31T02:03:25;12.80;99.90
7688;DHT22;30781;48.154;11.554;2022-10-31T02:05:54;12.80;99.90
7688;DHT22;30781;48.154;11.554;2022-10-31T02:08:30;12.80;99.90
7688;DHT22;30781;48.154;11.554;2022-10-31T02:10:59;12.80;99.90
7688;DHT22;30781;48.154;11.554;2022-10-31T02:13:34;12.70;99.90
7688;DHT22;30781;48.154;11.554;2022-10-31T02:16:01;12.70;99.90
7688;DHT22;30781;48.154;11.554;2022-10-31T02:18:30;12.70;99.90
7688;DHT22;30781;48.154;11.554;2022-10-31T02:21:07;12.70;99.90
7688;DHT22;30781;48.154;11.554;2022-10-31T02:24:05;12.60;99.90
7688;DHT22;30781;48.154;11.554;2022-10-31T02:30:15;12.60;99.90
7688;DHT22;30781;48.154;11.554;2022-10-31T02:33:02;12.50;99.90
7688;DHT22;30781;48.154;11.554;2022-10-31T02:35:47;12.50;99.90
7688;DHT22;30781;48.154;11.554;2022-10-31T02:38:29;12.50;99.90
7688;DHT22;30781;48.154;11.554;2022-10-31T02:41:08;12.40;99.90
7688;DHT22;30781;48.154;11.554;2022-10-31T02:43:54;12.40;99.90
7688;DHT22;30781;48.154;11.554;2022-10-31T02:46:25;12.40;99.90
7688;DHT22;30781;48.154;11.554;2022-10-31T02:49:18;12.40;99.90
7688;DHT22;30781;48.154;11.554;2022-10-31T02:51:56;12.40;99.90
7688;DHT22;30781;48.154;11.554;2022-10-31T02:54:31;12.40;99.90
7688;DHT22;30781;48.154;11.554;2022-10-31T02:57:03;12.40;99.90
7688;DHT22;30781;48.154;11.554;2022-10-31T02:59:45;12.40;99.90
7688;DHT22;30781;48.154;11.554;2022-10-31T03:02:37;12.40;99.90
7688;DHT22;30781;48.154;11.554;2022-10-31T03:05:26;12.30;99.90
7688;DHT22;30781;48.154;11.554;2022-10-31T03:08:01;12.30;99.90
7688;DHT22;30781;48.154;11.554;2022-10-31T03:10:35;12.30;99.90
7688;DHT22;30781;48.154;11.554;2022-10-31T03:13:10;12.30;99.90
7688;DHT22;30781;48.154;11.554;2022-10-31T03:15:53;12.20;99.90
7688;DHT22;30781;48.154;11.554;2022-10-31T03:18:28;12.30;99.90
7688;DHT22;30781;48.154;11.554;2022-10-31T03:21:01;12.30;99.90
7688;DHT22;30781;48.154;11.554;2022-10-31T03:23:32;12.30;99.90
7688;DHT22;30781;48.154;11.554;2022-10-31T03:26:06;12.20;99.90
7688;DHT22;30781;48.154;11.554;2022-10-31T03:28:37;12.20;99.90
7688;DHT22;30781;48.154;11.554;2022-10-31T03:31:17;12.20;99.90
7688;DHT22;30781;48.154;11.554;2022-10-31T03:33:47;12.20;99.90
7688;DHT22;30781;48.154;11.554;2022-10-31T03:36:20;12.20;99.90
7688;DHT22;30781;48.154;11.554;2022-10-31T03:38:51;12.10;99.90
7688;DHT22;30781;48.154;11.554;2022-10-31T03:41:31;12.20;99.90
7688;DHT22;30781;48.154;11.554;2022-10-31T03:44:01;12.10;99.90
7688;DHT22;30781;48.154;11.554;2022-10-31T03:46:29;12.10;99.90
7688;DHT22;30781;48.154;11.554;2022-10-31T03:48:59;12.10;99.90
7688;DHT22;30781;48.154;11.554;2022-10-31T03:51:36;12.10;99.90
7688;DHT22;30781;48.154;11.554;2022-10-31T03:54:11;12.10;99.90
7688;DHT22;30781;48.154;11.554;2022-10-31T03:56:45;12.10;99.90
7688;DHT22;30781;48.154;11.554;2022-10-31T03:59:17;12.10;99.90
7688;DHT22;30781;48.154;11.554;2022-10-31T04:01:49;12.10;99.90
7688;DHT22;30781;48.154;11.554;2022-10-31T04:04:20;12.00;99.90
7688;DHT22;30781;48.154;11.554;2022-10-31T04:06:50;12.00;99.90
7688;DHT22;30781;48.154;11.554;2022-10-31T04:09:20;12.00;99.90
7688;DHT22;30781;48.154;11.554;2022-10-31T04:11:53;12.00;99.90
7688;DHT22;30781;48.154;11.554;2022-10-31T04:14:24;12.00;99.90
7688;DHT22;30781;48.154;11.554;2022-10-31T04:17:01;12.00;99.90
7688;DHT22;30781;48.154;11.554;2022-10-31T04:19:33;11.90;99.90
7688;DHT22;30781;48.154;11.554;2022-10-31T04:22:03;11.90;99.90
7688;DHT22;30781;48.154;11.554;2022-10-31T04:24:32;12.00;99.90
7688;DHT22;30781;48.154;11.554;2022-10-31T04:26:59;11.90;99.90
7688;DHT22;30781;48.154;11.554;2022-10-31T04:29:32;11.90;99.90
7688;DHT22;30781;48.154;11.554;2022-10-31T04:31:59;11.90;99.90
7688;DHT22;30781;48.154;11.554;2022-10-31T04:34:30;11.90;99.90
7688;DHT22;30781;48.154;11.554;2022-10-31T04:37:06;11.90;99.90
7688;DHT22;30781;48.154;11.554;2022-10-31T04:39:33;11.90;99.90
7688;DHT22;30781;48.154;11.554;2022-10-31T04:42:01;11.90;99.90
7688;DHT22;30781;48.154;11.554;2022-10-31T04:44:28;11.90;99.90
7688;DHT22;30781;48.154;11.554;2022-10-31T04:46:55;11.90;99.90
7688;DHT22;30781;48.154;11.554;2022-10-31T04:49:22;11.80;99.90
7688;DHT22;30781;48.154;11.554;2022-10-31T04:51:52;11.80;99.90
7688;DHT22;30781;48.154;11.554;2022-10-31T04:54:20;11.90;99.90
7688;DHT22;30781;48.154;11.554;2022-10-31T04:56:50;11.90;99.90
7688;DHT22;30781;48.154;11.554;2022-10-31T04:59:17;11.80;99.90
7688;DHT22;30781;48.154;11.554;2022-10-31T05:01:49;11.80;99.90
7688;DHT22;30781;48.154;11.554;2022-10-31T05:04:20;11.80;99.90
7688;DHT22;30781;48.154;11.554;2022-10-31T05:06:51;11.80;99.90
7688;DHT22;30781;48.154;11.554;2022-10-31T05:09:22;11.80;99.90
7688;DHT22;30781;48.154;11.554;2022-10-31T05:11:53;11.70;99.90
7688;DHT22;30781;48.154;11.554;2022-10-31T05:14:27;11.70;99.90
7688;DHT22;30781;48.154;11.554;2022-10-31T05:16:54;11.70;99.90
7688;DHT22;30781;48.154;11.554;2022-10-31T05:19:23;11.70;99.90
7688;DHT22;30781;48.154;11.554;2022-10-31T05:21:50;11.70;99.90
7688;DHT22;30781;48.154;11.554;2022-10-31T05:24:17;11.60;99.90
7688;DHT22;30781;48.154;11.554;2022-10-31T05:26:49;11.60;99.90
7688;DHT22;30781;48.154;11.554;2022-10-31T05:29:16;11.60;99.90
7688;DHT22;30781;48.154;11.554;2022-10-31T05:31:47;11.60;99.90
7688;DHT22;30781;48.154;11.554;2022-10-31T05:34:17;11.60;99.90
7688;DHT22;30781;48.154;11.554;2022-10-31T05:36:46;11.60;99.90
7688;DHT22;30781;48.154;11.554;2022-10-31T05:39:18;11.60;99.90
7688;DHT22;30781;48.154;11.554;2022-10-31T05:41:49;11.60;99.90
7688;DHT22;30781;48.154;11.554;2022-10-31T05:44:16;11.50;99.90
7688;DHT22;30781;48.154;11.554;2022-10-31T05:46:48;11.60;99.90
7688;DHT22;30781;48.154;11.554;2022-10-31T05:49:15;11.60;99.90
7688;DHT22;30781;48.154;11.554;2022-10-31T05:51:49;11.60;99.90
7688;DHT22;30781;48.154;11.554;2022-10-31T05:54:16;11.60;99.90
7688;DHT22;30781;48.154;11.554;2022-10-31T05:56:51;11.60;99.90
7688;DHT22;30781;48.154;11.554;2022-10-31T05:59:22;11.60;99.90
7688;DHT22;30781;48.154;11.554;2022-10-31T06:01:53;11.50;99.90
7688;DHT22;30781;48.154;11.554;2022-10-31T06:04:23;11.50;99.90
7688;DHT22;30781;48.154;11.554;2022-10-31T06:06:50;11.60;99.90
7688;DHT22;30781;48.154;11.554;2022-10-31T06:09:20;11.60;99.90
7688;DHT22;30781;48.154;11.554;2022-10-31T06:11:47;11.60;99.90
7688;DHT22;30781;48.154;11.554;2022-10-31T06:14:25;11.60;99.90
7688;DHT22;30781;48.154;11.554;2022-10-31T06:16:54;11.60;99.90
7688;DHT22;30781;48.154;11.554;2022-10-31T06:19:21;11.60;99.90
7688;DHT22;30781;48.154;11.554;2022-10-31T06:21:56;11.70;99.90
7688;DHT22;30781;48.154;11.554;2022-10-31T06:24:22;11.70;99.90
7688;DHT22;30781;48.154;11.554;2022-10-31T06:26:59;11.70;99.90
7688;DHT22;30781;48.154;11.554;2022-10-31T06:29:30;11.80;99.90
7688;DHT22;30781;48.154;11.554;2022-10-31T06:31:57;11.90;99.90
7688;DHT22;30781;48.154;11.554;2022-10-31T06:34:24;12.00;99.90
7688;DHT22;30781;48.154;11.554;2022-10-31T06:36:54;12.20;99.90
7688;DHT22;30781;48.154;11.554;2022-10-31T06:39:24;12.40;99.90
7688;DHT22;30781;48.154;11.554;2022-10-31T06:41:54;12.70;99.90
7688;DHT22;30781;48.154;11.554;2022-10-31T06:44:23;12.90;99.90
7688;DHT22;30781;48.154;11.554;2022-10-31T06:47:07;13.10;99.90
7688;DHT22;30781;48.154;11.554;2022-10-31T06:49:44;13.50;99.90
7688;DHT22;30781;48.154;11.554;2022-10-31T06:52:14;13.70;99.90
7688;DHT22;30781;48.154;11.554;2022-10-31T06:54:49;14.00;99.90
7688;DHT22;30781;48.154;11.554;2022-10-31T06:57:18;14.30;99.90
7688;DHT22;30781;48.154;11.554;2022-10-31T06:59:47;14.50;99.90
7688;DHT22;30781;48.154;11.554;2022-10-31T07:02:23;14.70;99.90
7688;DHT22;30781;48.154;11.554;2022-10-31T07:04:55;15.00;99.90
7688;DHT22;30781;48.154;11.554;2022-10-31T07:07:29;15.20;99.90
7688;DHT22;30781;48.154;11.554;2022-10-31T07:10:09;15.50;99.90
7688;DHT22;30781;48.154;11.554;2022-10-31T07:12:57;15.70;99.90
7688;DHT22;30781;48.154;11.554;2022-10-31T07:15:32;15.90;99.30
7688;DHT22;30781;48.154;11.554;2022-10-31T07:18:05;16.20;99.20
7688;DHT22;30781;48.154;11.554;2022-10-31T07:20:34;16.50;98.80
7688;DHT22;30781;48.154;11.554;2022-10-31T07:23:03;16.70;98.40
7688;DHT22;30781;48.154;11.554;2022-10-31T07:25:36;17.00;97.70
7688;DHT22;30781;48.154;11.554;2022-10-31T07:28:03;17.20;97.10
7688;DHT22;30781;48.154;11.554;2022-10-31T07:30:30;17.40;96.90
7688;DHT22;30781;48.154;11.554;2022-10-31T07:33:06;17.60;96.20
7688;DHT22;30781;48.154;11.554;2022-10-31T07:35:38;17.80;95.60
7688;DHT22;30781;48.154;11.554;2022-10-31T07:38:11;18.00;95.50
7688;DHT22;30781;48.154;11.554;2022-10-31T07:40:38;18.10;94.80
7688;DHT22;30781;48.154;11.554;2022-10-31T07:43:08;18.30;94.40
7688;DHT22;30781;48.154;11.554;2022-10-31T07:45:39;18.40;94.00
7688;DHT22;30781;48.154;11.554;2022-10-31T07:48:07;18.50;93.60
7688;DHT22;30781;48.154;11.554;2022-10-31T07:50:40;18.60;93.30
7688;DHT22;30781;48.154;11.554;2022-10-31T07:53:08;18.70;92.90
7688;DHT22;30781;48.154;11.554;2022-10-31T07:55:37;18.80;92.70
7688;DHT22;30781;48.154;11.554;2022-10-31T07:58:15;18.90;92.60
7688;DHT22;30781;48.154;11.554;2022-10-31T08:00:44;19.00;92.50
7688;DHT22;30781;48.154;11.554;2022-10-31T08:03:16;19.10;92.20
7688;DHT22;30781;48.154;11.554;2022-10-31T08:05:50;19.20;92.00
7688;DHT22;30781;48.154;11.554;2022-10-31T08:08:22;19.20;92.00
7688;DHT22;30781;48.154;11.554;2022-10-31T08:10:49;19.30;91.70
7688;DHT22;30781;48.154;11.554;2022-10-31T08:13:16;19.30;91.50
7688;DHT22;30781;48.154;11.554;2022-10-31T08:15:43;19.30;91.30
7688;DHT22;30781;48.154;11.554;2022-10-31T08:18:17;19.30;91.40
7688;DHT22;30781;48.154;11.554;2022-10-31T08:20:55;19.30;91.00
7688;DHT22;30781;48.154;11.554;2022-10-31T08:23:22;19.20;90.90
7688;DHT22;30781;48.154;11.554;2022-10-31T08:25:49;19.00;90.80
7688;DHT22;30781;48.154;11.554;2022-10-31T08:28:18;18.90;90.80
7688;DHT22;30781;48.154;11.554;2022-10-31T08:30:46;18.60;91.20
7688;DHT22;30781;48.154;11.554;2022-10-31T08:33:18;18.40;91.40
7688;DHT22;30781;48.154;11.554;2022-10-31T08:35:50;18.20;92.00
7688;DHT22;30781;48.154;11.554;2022-10-31T08:38:19;18.00;92.30
7688;DHT22;30781;48.154;11.554;2022-10-31T08:40:50;17.90;92.70
7688;DHT22;30781;48.154;11.554;2022-10-31T08:43:21;17.80;92.90
7688;DHT22;30781;48.154;11.554;2022-10-31T08:45:55;17.60;93.20
7688;DHT22;30781;48.154;11.554;2022-10-31T08:48:40;17.50;93.50
7688;DHT22;30781;48.154;11.554;2022-10-31T08:51:11;17.40;93.60
7688;DHT22;30781;48.154;11.554;2022-10-31T08:53:38;17.30;93.70
7688;DHT22;30781;48.154;11.554;2022-10-31T08:56:07;17.20;93.60
7688;DHT22;30781;48.154;11.554;2022-10-31T08:58:48;17.20;93.70
7688;DHT22;30781;48.154;11.554;2022-10-31T09:01:34;17.10;93.80
7688;DHT22;30781;48.154;11.554;2022-10-31T09:04:06;17.00;93.80
7688;DHT22;30781;48.154;11.554;2022-10-31T09:06:38;17.00;94.40
7688;DHT22;30781;48.154;11.554;2022-10-31T09:09:10;17.00;94.20
7688;DHT22;30781;48.154;11.554;2022-10-31T09:11:38;17.00;94.40
7688;DHT22;30781;48.154;11.554;2022-10-31T09:14:10;17.00;94.50
7688;DHT22;30781;48.154;11.554;2022-10-31T09:16:39;17.00;94.50
7688;DHT22;30781;48.154;11.554;2022-10-31T09:19:10;17.00;94.60
7688;DHT22;30781;48.154;11.554;2022-10-31T09:21:37;17.00;94.60
7688;DHT22;30781;48.154;11.554;2022-10-31T09:24:06;17.10;94.60
7688;DHT22;30781;48.154;11.554;2022-10-31T09:26:33;17.10;94.50
7688;DHT22;30781;48.154;11.554;2022-10-31T09:29:00;17.10;94.40
7688;DHT22;30781;48.154;11.554;2022-10-31T09:31:27;17.20;94.50
7688;DHT22;30781;48.154;11.554;2022-10-31T09:33:57;17.20;94.20
7688;DHT22;30781;48.154;11.554;2022-10-31T09:39:43;17.30;94.00
7688;DHT22;30781;48.154;11.554;2022-10-31T09:42:38;17.40;93.90
7688;DHT22;30781;48.154;11.554;2022-10-31T09:45:37;17.40;93.60
7688;DHT22;30781;48.154;11.554;2022-10-31T09:48:47;17.50;93.50
7688;DHT22;30781;48.154;11.554;2022-10-31T09:51:37;17.50;93.10
7688;DHT22;30781;48.154;11.554;2022-10-31T09:54:12;17.60;92.80
7688;DHT22;30781;48.154;11.554;2022-10-31T09:56:43;17.60;92.60
7688;DHT22;30781;48.154;11.554;2022-10-31T09:59:16;17.60;92.40
7688;DHT22;30781;48.154;11.554;2022-10-31T10:01:50;17.70;92.20
7688;DHT22;30781;48.154;11.554;2022-10-31T10:04:36;17.80;91.70
7688;DHT22;30781;48.154;11.554;2022-10-31T10:07:22;17.80;91.60
7688;DHT22;30781;48.154;11.554;2022-10-31T10:09:53;17.90;91.90
7688;DHT22;30781;48.154;11.554;2022-10-31T10:12:43;18.00;91.50
7688;DHT22;30781;48.154;11.554;2022-10-31T10:15:43;18.10;91.30
7688;DHT22;30781;48.154;11.554;2022-10-31T10:18:25;18.20;91.10
7688;DHT22;30781;48.154;11.554;2022-10-31T10:21:16;18.30;91.00
7688;DHT22;30781;48.154;11.554;2022-10-31T10:23:57;18.40;90.90
7688;DHT22;30781;48.154;11.554;2022-10-31T10:26:37;18.60;90.70
7688;DHT22;30781;48.154;11.554;2022-10-31T10:29:29;18.70;90.90
7688;DHT22;30781;48.154;11.554;2022-10-31T10:32:02;18.80;90.00
7688;DHT22;30781;48.154;11.554;2022-10-31T10:34:39;18.90;88.90
7688;DHT22;30781;48.154;11.554;2022-10-31T10:37:26;19.10;88.70
7688;DHT22;30781;48.154;11.554;2022-10-31T10:39:58;19.20;88.30
7688;DHT22;30781;48.154;11.554;2022-10-31T10:42:36;19.30;87.70
7688;DHT22;30781;48.154;11.554;2022-10-31T10:45:22;19.40;87.00
7688;DHT22;30781;48.154;11.554;2022-10-31T10:48:14;19.50;86.40
7688;DHT22;30781;48.154;11.554;2022-10-31T10:50:50;19.60;85.40
7688;DHT22;30781;48.154;11.554;2022-10-31T10:53:38;19.70;84.90
7688;DHT22;30781;48.154;11.554;2022-10-31T10:56:20;19.80;84.90
7688;DHT22;30781;48.154;11.554;2022-10-31T10:58:52;19.80;84.30
7688;DHT22;30781;48.154;11.554;2022-10-31T11:01:22;19.90;84.10
7688;DHT22;30781;48.154;11.554;2022-10-31T11:03:52;20.00;83.80
7688;DHT22;30781;48.154;11.554;2022-10-31T11:06:21;20.10;83.40
7688;DHT22;30781;48.154;11.554;2022-10-31T11:08:51;20.20;82.90
7688;DHT22;30781;48.154;11.554;2022-10-31T11:11:38;20.20;81.10
7688;DHT22;30781;48.154;11.554;2022-10-31T11:14:20;20.30;79.90
7688;DHT22;30781;48.154;11.554;2022-10-31T11:16:55;20.30;80.00
7688;DHT22;30781;48.154;11.554;2022-10-31T11:19:24;20.40;79.90
7688;DHT22;30781;48.154;11.554;2022-10-31T11:21:54;20.50;79.80
7688;DHT22;30781;48.154;11.554;2022-10-31T11:24:39;20.50;79.50
7688;DHT22;30781;48.154;11.554;2022-10-31T11:27:20;20.60;79.50
7688;DHT22;30781;48.154;11.554;2022-10-31T11:29:49;20.70;79.60
7688;DHT22;30781;48.154;11.554;2022-10-31T11:32:23;20.80;78.80
7688;DHT22;30781;48.154;11.554;2022-10-31T11:34:59;20.90;78.50
7688;DHT22;30781;48.154;11.554;2022-10-31T11:37:27;21.00;77.90
7688;DHT22;30781;48.154;11.554;2022-10-31T11:40:19;21.00;77.60
7688;DHT22;30781;48.154;11.554;2022-10-31T11:42:56;21.10;77.30
7688;DHT22;30781;48.154;11.554;2022-10-31T11:45:32;21.20;76.90
7688;DHT22;30781;48.154;11.554;2022-10-31T11:48:21;21.30;76.80
7688;DHT22;30781;48.154;11.554;2022-10-31T11:50:52;21.30;76.70
7688;DHT22;30781;48.154;11.554;2022-10-31T11:53:26;21.40;76.50
7688;DHT22;30781;48.154;11.554;2022-10-31T11:56:06;21.50;75.50
7688;DHT22;30781;48.154;11.554;2022-10-31T11:58:40;21.60;75.60
7688;DHT22;30781;48.154;11.554;2022-10-31T12:01:25;21.70;75.00
7688;DHT22;30781;48.154;11.554;2022-10-31T12:04:06;21.80;74.40
7688;DHT22;30781;48.154;11.554;2022-10-31T12:06:35;21.80;72.90
7688;DHT22;30781;48.154;11.554;2022-10-31T12:09:18;21.80;72.30
7688;DHT22;30781;48.154;11.554;2022-10-31T12:14:41;21.70;72.10
7688;DHT22;30781;48.154;11.554;2022-10-31T12:17:16;21.70;72.80
7688;DHT22;30781;48.154;11.554;2022-10-31T12:19:59;21.70;72.60
7688;DHT22;30781;48.154;11.554;2022-10-31T12:22:44;21.60;73.10
7688;DHT22;30781;48.154;11.554;2022-10-31T12:25:34;21.60;73.30
7688;DHT22;30781;48.154;11.554;2022-10-31T12:28:39;21.50;73.80
7688;DHT22;30781;48.154;11.554;2022-10-31T12:31:31;21.40;73.80
7688;DHT22;30781;48.154;11.554;2022-10-31T12:34:29;21.30;73.90
7688;DHT22;30781;48.154;11.554;2022-10-31T12:37:11;21.30;74.40
7688;DHT22;30781;48.154;11.554;2022-10-31T12:39:44;21.20;74.60
7688;DHT22;30781;48.154;11.554;2022-10-31T12:42:27;21.20;74.50
7688;DHT22;30781;48.154;11.554;2022-10-31T12:48:19;21.20;75.10
7688;DHT22;30781;48.154;11.554;2022-10-31T12:51:04;21.20;75.20
7688;DHT22;30781;48.154;11.554;2022-10-31T12:53:45;21.30;75.30
7688;DHT22;30781;48.154;11.554;2022-10-31T12:56:29;21.40;75.10
7688;DHT22;30781;48.154;11.554;2022-10-31T12:59:03;21.50;75.30
7688;DHT22;30781;48.154;11.554;2022-10-31T13:01:35;21.60;74.90
7688;DHT22;30781;48.154;11.554;2022-10-31T13:04:10;21.70;74.40
7688;DHT22;30781;48.154;11.554;2022-10-31T13:06:46;21.80;74.40
7688;DHT22;30781;48.154;11.554;2022-10-31T13:09:21;21.90;74.50
7688;DHT22;30781;48.154;11.554;2022-10-31T13:11:59;22.00;74.00
7688;DHT22;30781;48.154;11.554;2022-10-31T13:14:33;22.00;73.70
7688;DHT22;30781;48.154;11.554;2022-10-31T13:17:13;22.10;73.80
7688;DHT22;30781;48.154;11.554;2022-10-31T13:19:47;22.00;74.20
7688;DHT22;30781;48.154;11.554;2022-10-31T13:22:25;22.00;74.00
7688;DHT22;30781;48.154;11.554;2022-10-31T13:24:58;22.00;74.50
7688;DHT22;30781;48.154;11.554;2022-10-31T13:27:34;22.00;74.00
7688;DHT22;30781;48.154;11.554;2022-10-31T13:30:11;21.90;74.20
7688;DHT22;30781;48.154;11.554;2022-10-31T13:32:41;21.90;74.50
7688;DHT22;30781;48.154;11.554;2022-10-31T13:35:16;21.80;74.40
7688;DHT22;30781;48.154;11.554;2022-10-31T13:37:51;21.70;74.50
7688;DHT22;30781;48.154;11.554;2022-10-31T13:40:35;21.70;75.00
7688;DHT22;30781;48.154;11.554;2022-10-31T13:43:18;21.60;75.20
7688;DHT22;30781;48.154;11.554;2022-10-31T13:45:55;21.50;75.70
7688;DHT22;30781;48.154;11.554;2022-10-31T13:48:39;21.30;76.00
7688;DHT22;30781;48.154;11.554;2022-10-31T13:51:10;21.30;76.70
7688;DHT22;30781;48.154;11.554;2022-10-31T13:53:44;21.20;76.90
7688;DHT22;30781;48.154;11.554;2022-10-31T13:56:22;21.10;77.20
7688;DHT22;30781;48.154;11.554;2022-10-31T13:59:21;21.00;77.50
7688;DHT22;30781;48.154;11.554;2022-10-31T14:01:58;21.00;77.90
7688;DHT22;30781;48.154;11.554;2022-10-31T14:04:37;20.80;78.10
7688;DHT22;30781;48.154;11.554;2022-10-31T14:07:14;20.80;78.30
7688;DHT22;30781;48.154;11.554;2022-10-31T14:09:54;20.70;78.70
7688;DHT22;30781;48.154;11.554;2022-10-31T14:12:34;20.70;78.90
7688;DHT22;30781;48.154;11.554;2022-10-31T14:15:15;20.70;78.90
7688;DHT22;30781;48.154;11.554;2022-10-31T14:17:46;20.70;79.30
7688;DHT22;30781;48.154;11.554;2022-10-31T14:20:34;20.70;79.60
7688;DHT22;30781;48.154;11.554;2022-10-31T14:23:32;20.80;81.20
7688;DHT22;30781;48.154;11.554;2022-10-31T14:26:21;20.90;82.10
7688;DHT22;30781;48.154;11.554;2022-10-31T14:29:00;21.00;82.90
7688;DHT22;30781;48.154;11.554;2022-10-31T14:31:32;21.00;83.40
7688;DHT22;30781;48.154;11.554;2022-10-31T14:34:06;21.00;83.50
7688;DHT22;30781;48.154;11.554;2022-10-31T14:37:02;21.00;84.10
7688;DHT22;30781;48.154;11.554;2022-10-31T14:39:35;20.90;84.50
7688;DHT22;30781;48.154;11.554;2022-10-31T14:42:19;20.90;85.30
7688;DHT22;30781;48.154;11.554;2022-10-31T14:45:10;20.80;86.10
7688;DHT22;30781;48.154;11.554;2022-10-31T14:47:46;20.70;86.80
7688;DHT22;30781;48.154;11.554;2022-10-31T14:50:24;20.60;87.90
7688;DHT22;30781;48.154;11.554;2022-10-31T14:52:56;20.50;88.70
7688;DHT22;30781;48.154;11.554;2022-10-31T14:55:24;20.50;89.80
7688;DHT22;30781;48.154;11.554;2022-10-31T14:57:55;20.40;90.10
7688;DHT22;30781;48.154;11.554;2022-10-31T15:00:25;20.40;90.50
7688;DHT22;30781;48.154;11.554;2022-10-31T15:03:09;20.40;90.70
7688;DHT22;30781;48.154;11.554;2022-10-31T15:05:42;20.30;90.70
7688;DHT22;30781;48.154;11.554;2022-10-31T15:08:25;20.20;91.00
7688;DHT22;30781;48.154;11.554;2022-10-31T15:10:52;20.10;91.30
7688;DHT22;30781;48.154;11.554;2022-10-31T15:13:20;20.10;91.70
7688;DHT22;30781;48.154;11.554;2022-10-31T15:15:53;20.00;91.90
7688;DHT22;30781;48.154;11.554;2022-10-31T15:18:24;20.00;92.20
7688;DHT22;30781;48.154;11.554;2022-10-31T15:20:55;19.90;92.40
7688;DHT22;30781;48.154;11.554;2022-10-31T15:23:26;19.90;92.70
7688;DHT22;30781;48.154;11.554;2022-10-31T15:26:01;19.80;93.10
7688;DHT22;30781;48.154;11.554;2022-10-31T15:28:32;19.80;93.30
7688;DHT22;30781;48.154;11.554;2022-10-31T15:31:02;19.70;93.60
7688;DHT22;30781;48.154;11.554;2022-10-31T15:33:40;19.70;93.80
7688;DHT22;30781;48.154;11.554;2022-10-31T15:36:18;19.60;94.00
7688;DHT22;30781;48.154;11.554;2022-10-31T15:38:49;19.50;94.40
7688;DHT22;30781;48.154;11.554;2022-10-31T15:41:30;19.50;94.40
7688;DHT22;30781;48.154;11.554;2022-10-31T15:44:02;19.40;94.60
7688;DHT22;30781;48.154;11.554;2022-10-31T15:46:31;19.30;94.70
7688;DHT22;30781;48.154;11.554;2022-10-31T15:49:00;19.30;94.90
7688;DHT22;30781;48.154;11.554;2022-10-31T15:51:28;19.20;95.00
7688;DHT22;30781;48.154;11.554;2022-10-31T15:53:57;19.10;95.20
7688;DHT22;30781;48.154;11.554;2022-10-31T15:56:27;19.00;95.40
7688;DHT22;30781;48.154;11.554;2022-10-31T15:58:57;18.90;95.90
7688;DHT22;30781;48.154;11.554;2022-10-31T16:01:27;18.80;96.50
7688;DHT22;30781;48.154;11.554;2022-10-31T16:04:04;18.70;96.50
7688;DHT22;30781;48.154;11.554;2022-10-31T16:06:33;18.60;96.60
7688;DHT22;30781;48.154;11.554;2022-10-31T16:09:00;18.50;96.60
7688;DHT22;30781;48.154;11.554;2022-10-31T16:11:35;18.40;96.80
7688;DHT22;30781;48.154;11.554;2022-10-31T16:14:05;18.40;97.00
7688;DHT22;30781;48.154;11.554;2022-10-31T16:16:40;18.30;97.20
7688;DHT22;30781;48.154;11.554;2022-10-31T16:19:17;18.20;97.40
7688;DHT22;30781;48.154;11.554;2022-10-31T16:21:48;18.10;97.40
7688;DHT22;30781;48.154;11.554;2022-10-31T16:24:19;18.00;98.00
7688;DHT22;30781;48.154;11.554;2022-10-31T16:26:48;18.00;98.00
7688;DHT22;30781;48.154;11.554;2022-10-31T16:29:25;17.90;98.30